Tpc Longview — V7UK8 — position and weather

sailwx.info

Track history (hours):
 
Tides and Currents Weather Stations Pressure Air Temp Water Temp Dewpoint Dewpoint Depression Visibility Wind Speed Wind Dir Waves Ship Positions

Tpc Longview

Last reported at 2018-Jun-18 09:00 UTC. Time now 2018-Jun-18 09:20 UTC.
Position N 37°21' W 028°23'.

Length 180 m; draft 8.9 m.

Type: Cargo ship. MMSI: 538004166.

Date/timePositionNaut miles runAvg speedWind from/ knotsBaromVisibWave heightAir tempDewpointWater temp
2018-Jun-18 09:00N 37°21' W 028°23'611.9
2018-Jun-18 08:30N 37°22' W 028°15'611.9
2018-Jun-18 08:01N 37°22' W 028°08'612.1
2018-Jun-18 07:30N 37°22' W 028°00'611.9
2018-Jun-18 07:00N 37°23' W 027°52'612.1
2018-Jun-18 06:31N 37°23' W 027°45'711.9
2018-Jun-18 05:53N 37°24' W 027°36'912.1
2018-Jun-18 05:08N 37°24' W 027°24'412.3
2018-Jun-18 04:47N 37°24' W 027°19'311.9
2018-Jun-18 04:30N 37°25' W 027°15'711.7
2018-Jun-18 03:55N 37°25' W 027°06'511.7
2018-Jun-18 03:30N 37°25' W 026°60'611.4
2018-Jun-18 03:00N 37°26' W 026°53'611.8
2018-Jun-18 02:30N 37°26' W 026°45'612.6
2018-Jun-18 02:00N 37°26' W 026°37'612.5
2018-Jun-18 01:30N 37°27' W 026°30'612.4
2018-Jun-18 01:00N 37°27' W 026°22'612.0
2018-Jun-18 00:30N 37°27' W 026°14'611.8
2018-Jun-18 00:00N 37°28' W 026°07'612.3
2018-Jun-17 23:30N 37°28' W 025°59'612.3
2018-Jun-17 23:00N 37°29' W 025°51'611.7
2018-Jun-17 22:30N 37°29' W 025°44'612.4
2018-Jun-17 22:00N 37°30' W 025°36'612.2
2018-Jun-17 21:30N 37°30' W 025°29'612.1
2018-Jun-17 21:01N 37°30' W 025°21'611.9
2018-Jun-17 20:30N 37°30' W 025°14'612.5
2018-Jun-17 20:00N 37°29' W 025°06'612.5
2018-Jun-17 19:31N 37°28' W 024°58'612.2
2018-Jun-17 19:00N 37°27' W 024°50'611.7
2018-Jun-17 18:30N 37°27' W 024°43'611.6
2018-Jun-17 18:01N 37°27' W 024°36'612.3
2018-Jun-17 17:31N 37°27' W 024°28'612.2
2018-Jun-17 17:00N 37°26' W 024°20'612.2
2018-Jun-17 16:30N 37°26' W 024°13'612.0
2018-Jun-17 16:00N 37°25' W 024°05'612.1
2018-Jun-17 15:31N 37°25' W 023°58'612.3
2018-Jun-17 15:00N 37°24' W 023°50'612.0
2018-Jun-17 14:30N 37°24' W 023°42'812.5
2018-Jun-17 13:51N 37°23' W 023°32'712.0
2018-Jun-17 13:13N 37°23' W 023°23'311.4
2018-Jun-17 13:00N 37°23' W 023°19'6211.9
2018-Jun-17 07:47N 37°17' W 022°02'12411.9
2018-Jun-16 21:23N 37°07' W 019°27'1012.1
2018-Jun-16 20:35N 37°06' W 019°15'112.4
2018-Jun-16 20:31N 37°06' W 019°13'26211.7
2018-Jun-15 22:05N 36°34' W 013°49'3310.5
2018-Jun-15 18:57N 36°25' W 013°10'510.8
2018-Jun-15 18:30N 36°23' W 013°04'711.5
2018-Jun-15 17:56N 36°22' W 012°56'611.5
2018-Jun-15 17:27N 36°22' W 012°49'511.6
2018-Jun-15 17:00N 36°21' W 012°43'611.5
2018-Jun-15 16:30N 36°21' W 012°36'611.5
2018-Jun-15 15:58N 36°20' W 012°28'511.7
2018-Jun-15 15:30N 36°20' W 012°22'711.6
2018-Jun-15 14:56N 36°19' W 012°13'711.5
2018-Jun-15 14:19N 36°18' W 012°05'411.5
2018-Jun-15 13:58N 36°18' W 011°60'711.7
2018-Jun-15 13:22N 36°17' W 011°51'411.8
2018-Jun-15 12:59N 36°17' W 011°45'21511.2
2018-Jun-14 17:41N 35°58' W 007°20'211.7
2018-Jun-14 17:28N 35°58' W 007°17'611.8
2018-Jun-14 16:59N 35°58' W 007°10'611.7
2018-Jun-14 16:28N 35°58' W 007°02'7111.7
2018-Jun-14 10:24N 35°57' W 005°35'410.1
2018-Jun-14 10:00N 35°59' W 005°30'5 9.1
2018-Jun-14 09:30N 36°01' W 005°25'4 8.9
2018-Jun-14 09:00N 36°05' W 005°23'3 3.6
2018-Jun-14 08:10N 36°08' W 005°22'0 0.1
2018-Jun-14 07:43N 36°08' W 005°22'0 0.0
2018-Jun-14 07:19N 36°08' W 005°22'0 0.1
2018-Jun-14 06:49N 36°08' W 005°22'0 0.0
2018-Jun-14 06:25N 36°08' W 005°22'0 0.0
2018-Jun-14 05:55N 36°08' W 005°22'0 0.0
2018-Jun-14 05:25N 36°08' W 005°22'0 0.0
2018-Jun-14 04:43N 36°08' W 005°22'0 0.3
2018-Jun-14 04:25N 36°08' W 005°22'0 0.0
2018-Jun-14 03:55N 36°08' W 005°22'0 0.0
2018-Jun-14 03:25N 36°08' W 005°22'0 0.0
2018-Jun-14 02:58N 36°08' W 005°22'0 0.1
2018-Jun-14 02:25N 36°08' W 005°22'0 0.1
2018-Jun-14 01:55N 36°08' W 005°22'0 0.1
2018-Jun-14 01:25N 36°08' W 005°22'0 0.0
2018-Jun-14 00:32N 36°08' W 005°22'0 0.4
2018-Jun-14 00:26N 36°08' W 005°22'1 3.1
2018-Jun-14 00:00N 36°07' W 005°22'3 6.5
2018-Jun-13 23:31N 36°05' W 005°18'5 9.3
2018-Jun-13 23:00N 36°08' W 005°13'4 7.4
2018-Jun-13 22:30N 36°10' W 005°10'2 3.9
2018-Jun-13 22:00N 36°08' W 005°10'1 1.0
2018-Jun-13 21:28N 36°09' W 005°11'1 1.7
2018-Jun-13 21:00N 36°09' W 005°10'4 8.0
2018-Jun-13 20:29N 36°07' W 005°06'2 3.9
2018-Jun-13 19:54N 36°05' W 005°08'511.7
2018-Jun-13 19:30N 36°03' W 005°12'1 1.4
2018-Jun-13 18:58N 36°02' W 005°12'21510.4
2018-Jun-12 22:13N 36°42' W 000°49'710.9
2018-Jun-12 21:36N 36°43' W 000°41'411.0
2018-Jun-12 21:16N 36°44' W 000°36'311.4
2018-Jun-12 21:01N 36°45' W 000°33'611.7
2018-Jun-12 20:30N 36°46' W 000°26'611.6
2018-Jun-12 19:58N 36°48' W 000°18'511.5
2018-Jun-12 19:30N 36°49' W 000°12'611.6
2018-Jun-12 18:59N 36°51' W 000°04'611.5
2018-Jun-12 18:30N 36°52' E 000°02'611.5
2018-Jun-12 18:01N 36°54' E 000°09'611.4
2018-Jun-12 17:30N 36°55' E 000°16'611.3
2018-Jun-12 17:00N 36°56' E 000°23'611.4
2018-Jun-12 16:30N 36°58' E 000°30'611.4
2018-Jun-12 16:00N 36°59' E 000°37'1211.2
2018-Jun-12 14:56N 37°02' E 000°52'511.2
2018-Jun-12 14:30N 37°03' E 000°57'711.0
2018-Jun-12 13:51N 37°04' E 001°06'1310.9
2018-Jun-12 12:37N 37°07' E 001°23'10411.0
2018-Jun-12 03:12N 37°32' E 003°29'212.0
2018-Jun-12 03:01N 37°32' E 003°32'612.1
2018-Jun-12 02:30N 37°34' E 003°40'612.1
2018-Jun-12 02:00N 37°36' E 003°47'1211.7
2018-Jun-12 00:57N 37°38' E 004°02'611.8
2018-Jun-12 00:28N 37°38' E 004°09'32611.8
2018-Jun-10 20:55N 37°31' E 011°01'15411.9
2018-Jun-10 08:00N 36°21' E 013°53'611.3
2018-Jun-10 07:30N 36°22' E 013°60'611.4
2018-Jun-10 07:00N 36°22' E 014°07'611.5
2018-Jun-10 06:30N 36°22' E 014°14'611.4
2018-Jun-10 06:00N 36°22' E 014°21'611.4
2018-Jun-10 05:30N 36°22' E 014°28'511.1
2018-Jun-10 05:00N 36°22' E 014°35'611.0
2018-Jun-10 04:28N 36°22' E 014°42'811.2
2018-Jun-10 03:45N 36°22' E 014°52'311.3
2018-Jun-10 03:30N 36°22' E 014°56'39311.1
2018-Jun-08 15:55N 36°24' E 023°04'512.2
2018-Jun-08 15:30N 36°24' E 023°10'1711.4
2018-Jun-08 14:01N 36°37' E 023°24'011.8
2018-Jun-08 14:00N 36°37' E 023°24'612.1
2018-Jun-08 13:31N 36°42' E 023°28'612.2
2018-Jun-08 13:01N 36°47' E 023°32'2612.1
2018-Jun-08 10:54N 37°09' E 023°48'1212.8
2018-Jun-08 09:58N 37°20' E 023°55'  
Track history (hours):
 
Tides and Currents Weather Stations Pressure Air Temp Water Temp Dewpoint Dewpoint Depression Visibility Wind Speed Wind Dir Waves Ship Positions

Tpc Longview

Last reported at 2018-Jun-18 09:00 UTC. Time now 2018-Jun-18 09:20 UTC.
Position N 37°21' W 028°23'.

Length 180 m; draft 8.9 m.

Type: Cargo ship. MMSI: 538004166.

Date/timePositionNaut miles runAvg speedWind from/ knotsBaromVisibWave heightAir tempDewpointWater temp
2018-Jun-18 09:00N 37°21' W 028°23'611.9
2018-Jun-18 08:30N 37°22' W 028°15'611.9
2018-Jun-18 08:01N 37°22' W 028°08'612.1
2018-Jun-18 07:30N 37°22' W 028°00'611.9
2018-Jun-18 07:00N 37°23' W 027°52'612.1
2018-Jun-18 06:31N 37°23' W 027°45'711.9
2018-Jun-18 05:53N 37°24' W 027°36'912.1
2018-Jun-18 05:08N 37°24' W 027°24'412.3
2018-Jun-18 04:47N 37°24' W 027°19'311.9
2018-Jun-18 04:30N 37°25' W 027°15'711.7
2018-Jun-18 03:55N 37°25' W 027°06'511.7
2018-Jun-18 03:30N 37°25' W 026°60'611.4
2018-Jun-18 03:00N 37°26' W 026°53'611.8
2018-Jun-18 02:30N 37°26' W 026°45'612.6
2018-Jun-18 02:00N 37°26' W 026°37'612.5
2018-Jun-18 01:30N 37°27' W 026°30'612.4
2018-Jun-18 01:00N 37°27' W 026°22'612.0
2018-Jun-18 00:30N 37°27' W 026°14'611.8
2018-Jun-18 00:00N 37°28' W 026°07'612.3
2018-Jun-17 23:30N 37°28' W 025°59'612.3
2018-Jun-17 23:00N 37°29' W 025°51'611.7
2018-Jun-17 22:30N 37°29' W 025°44'612.4
2018-Jun-17 22:00N 37°30' W 025°36'612.2
2018-Jun-17 21:30N 37°30' W 025°29'612.1
2018-Jun-17 21:01N 37°30' W 025°21'611.9
2018-Jun-17 20:30N 37°30' W 025°14'612.5
2018-Jun-17 20:00N 37°29' W 025°06'612.5
2018-Jun-17 19:31N 37°28' W 024°58'612.2
2018-Jun-17 19:00N 37°27' W 024°50'611.7
2018-Jun-17 18:30N 37°27' W 024°43'611.6
2018-Jun-17 18:01N 37°27' W 024°36'612.3
2018-Jun-17 17:31N 37°27' W 024°28'612.2
2018-Jun-17 17:00N 37°26' W 024°20'612.2
2018-Jun-17 16:30N 37°26' W 024°13'612.0
2018-Jun-17 16:00N 37°25' W 024°05'612.1
2018-Jun-17 15:31N 37°25' W 023°58'612.3
2018-Jun-17 15:00N 37°24' W 023°50'612.0
2018-Jun-17 14:30N 37°24' W 023°42'812.5
2018-Jun-17 13:51N 37°23' W 023°32'712.0
2018-Jun-17 13:13N 37°23' W 023°23'311.4
2018-Jun-17 13:00N 37°23' W 023°19'6211.9
2018-Jun-17 07:47N 37°17' W 022°02'12411.9
2018-Jun-16 21:23N 37°07' W 019°27'1012.1
2018-Jun-16 20:35N 37°06' W 019°15'112.4
2018-Jun-16 20:31N 37°06' W 019°13'26211.7
2018-Jun-15 22:05N 36°34' W 013°49'3310.5
2018-Jun-15 18:57N 36°25' W 013°10'510.8
2018-Jun-15 18:30N 36°23' W 013°04'711.5
2018-Jun-15 17:56N 36°22' W 012°56'611.5
2018-Jun-15 17:27N 36°22' W 012°49'511.6
2018-Jun-15 17:00N 36°21' W 012°43'611.5
2018-Jun-15 16:30N 36°21' W 012°36'611.5
2018-Jun-15 15:58N 36°20' W 012°28'511.7
2018-Jun-15 15:30N 36°20' W 012°22'711.6
2018-Jun-15 14:56N 36°19' W 012°13'711.5
2018-Jun-15 14:19N 36°18' W 012°05'411.5
2018-Jun-15 13:58N 36°18' W 011°60'711.7
2018-Jun-15 13:22N 36°17' W 011°51'411.8
2018-Jun-15 12:59N 36°17' W 011°45'21511.2
2018-Jun-14 17:41N 35°58' W 007°20'211.7
2018-Jun-14 17:28N 35°58' W 007°17'611.8
2018-Jun-14 16:59N 35°58' W 007°10'611.7
2018-Jun-14 16:28N 35°58' W 007°02'7111.7
2018-Jun-14 10:24N 35°57' W 005°35'410.1
2018-Jun-14 10:00N 35°59' W 005°30'5 9.1
2018-Jun-14 09:30N 36°01' W 005°25'4 8.9
2018-Jun-14 09:00N 36°05' W 005°23'3 3.6
2018-Jun-14 08:10N 36°08' W 005°22'0 0.1
2018-Jun-14 07:43N 36°08' W 005°22'0 0.0
2018-Jun-14 07:19N 36°08' W 005°22'0 0.1
2018-Jun-14 06:49N 36°08' W 005°22'0 0.0
2018-Jun-14 06:25N 36°08' W 005°22'0 0.0
2018-Jun-14 05:55N 36°08' W 005°22'0 0.0
2018-Jun-14 05:25N 36°08' W 005°22'0 0.0
2018-Jun-14 04:43N 36°08' W 005°22'0 0.3
2018-Jun-14 04:25N 36°08' W 005°22'0 0.0
2018-Jun-14 03:55N 36°08' W 005°22'0 0.0
2018-Jun-14 03:25N 36°08' W 005°22'0 0.0
2018-Jun-14 02:58N 36°08' W 005°22'0 0.1
2018-Jun-14 02:25N 36°08' W 005°22'0 0.1
2018-Jun-14 01:55N 36°08' W 005°22'0 0.1
2018-Jun-14 01:25N 36°08' W 005°22'0 0.0
2018-Jun-14 00:32N 36°08' W 005°22'0 0.4
2018-Jun-14 00:26N 36°08' W 005°22'1 3.1
2018-Jun-14 00:00N 36°07' W 005°22'3 6.5
2018-Jun-13 23:31N 36°05' W 005°18'5 9.3
2018-Jun-13 23:00N 36°08' W 005°13'4 7.4
2018-Jun-13 22:30N 36°10' W 005°10'2 3.9
2018-Jun-13 22:00N 36°08' W 005°10'1 1.0
2018-Jun-13 21:28N 36°09' W 005°11'1 1.7
2018-Jun-13 21:00N 36°09' W 005°10'4 8.0
2018-Jun-13 20:29N 36°07' W 005°06'2 3.9
2018-Jun-13 19:54N 36°05' W 005°08'511.7
2018-Jun-13 19:30N 36°03' W 005°12'1 1.4
2018-Jun-13 18:58N 36°02' W 005°12'21510.4
2018-Jun-12 22:13N 36°42' W 000°49'710.9
2018-Jun-12 21:36N 36°43' W 000°41'411.0
2018-Jun-12 21:16N 36°44' W 000°36'311.4
2018-Jun-12 21:01N 36°45' W 000°33'611.7
2018-Jun-12 20:30N 36°46' W 000°26'611.6
2018-Jun-12 19:58N 36°48' W 000°18'511.5
2018-Jun-12 19:30N 36°49' W 000°12'611.6
2018-Jun-12 18:59N 36°51' W 000°04'611.5
2018-Jun-12 18:30N 36°52' E 000°02'611.5
2018-Jun-12 18:01N 36°54' E 000°09'611.4
2018-Jun-12 17:30N 36°55' E 000°16'611.3
2018-Jun-12 17:00N 36°56' E 000°23'611.4
2018-Jun-12 16:30N 36°58' E 000°30'611.4
2018-Jun-12 16:00N 36°59' E 000°37'1211.2
2018-Jun-12 14:56N 37°02' E 000°52'511.2
2018-Jun-12 14:30N 37°03' E 000°57'711.0
2018-Jun-12 13:51N 37°04' E 001°06'1310.9
2018-Jun-12 12:37N 37°07' E 001°23'10411.0
2018-Jun-12 03:12N 37°32' E 003°29'212.0
2018-Jun-12 03:01N 37°32' E 003°32'612.1
2018-Jun-12 02:30N 37°34' E 003°40'612.1
2018-Jun-12 02:00N 37°36' E 003°47'1211.7
2018-Jun-12 00:57N 37°38' E 004°02'611.8
2018-Jun-12 00:28N 37°38' E 004°09'32611.8
2018-Jun-10 20:55N 37°31' E 011°01'15411.9
2018-Jun-10 08:00N 36°21' E 013°53'611.3
2018-Jun-10 07:30N 36°22' E 013°60'611.4
2018-Jun-10 07:00N 36°22' E 014°07'611.5
2018-Jun-10 06:30N 36°22' E 014°14'611.4
2018-Jun-10 06:00N 36°22' E 014°21'611.4
2018-Jun-10 05:30N 36°22' E 014°28'511.1
2018-Jun-10 05:00N 36°22' E 014°35'611.0
2018-Jun-10 04:28N 36°22' E 014°42'811.2
2018-Jun-10 03:45N 36°22' E 014°52'311.3
2018-Jun-10 03:30N 36°22' E 014°56'39311.1
2018-Jun-08 15:55N 36°24' E 023°04'512.2
2018-Jun-08 15:30N 36°24' E 023°10'1711.4
2018-Jun-08 14:01N 36°37' E 023°24'011.8
2018-Jun-08 14:00N 36°37' E 023°24'612.1
2018-Jun-08 13:31N 36°42' E 023°28'612.2
2018-Jun-08 13:01N 36°47' E 023°32'2612.1
2018-Jun-08 10:54N 37°09' E 023°48'1212.8
2018-Jun-08 09:58N 37°20' E 023°55'  

Dump ship's entire track history